Meteo Giornale » Osservazioni meteo Italia » Catania-Fontanarossa

ore: 13:50 - Osservazioni Meteo Catania-Fontanarossa
Lat. 37° 28' N Lon. 15° 3' E Alt. 11 metri s.l.m.

poco_nuvoloso Europe/Rome

25 °C

Poco Nuvoloso

Temp. 24 Ore

14 °C

25 °C

Est/Nord-Est

20.3 Km/h

Dew point 15 °C

Umidità 53 %

Visibilità  10 Km

Il sole sorge alle ore 05:41

Il sole tramonta alle ore 20:11

Data e Ora Cielo e Fenomeni T °C DP °C Um. % Pres. hPa Vis. km Vento km/h
Oggi h: 13:50 poco_nuvoloso Poco Nuvoloso 25 15 53 1014 10 E/NE 20.3
Oggi h: 13:20 poco_nuvoloso Poco Nuvoloso 25 14 50 1015 10 E 16.7
Oggi h: 12:50 sereno Sereno 24 14 53 1015 10 E 13
Oggi h: 12:20 sereno Sereno 24 15 57 1015 10 E 13
Oggi h: 11:50 sereno Sereno 24 15 57 1015 10 E/SE 9.3
Oggi h: 11:20 sereno Sereno 23 15 60 1015 10 E 11.1
Oggi h: 10:50 sereno Sereno 23 16 64 1015 10 E 11.1
Oggi h: 10:20 sereno Sereno 22 15 64 1015 10 E 7.4
Oggi h: 09:50 sereno Sereno 22 14 60 1015 10 E/SE 7.4
Oggi h: 09:20 sereno Sereno 22 15 64 1015 10 E/SE 9.3
Oggi h: 08:50 sereno Sereno 22 15 64 1015 10 N 3.7
Oggi h: 08:20 sereno Sereno 21 15 68 1015 10 N 5.5
Oggi h: 07:50 sereno Sereno 21 16 73 1015 10 N 1.8
Oggi h: 07:20 sereno Sereno 17 12 72 1015 10 O/NO 9.3
Oggi h: 06:50 sereno Sereno 14 11 82 1015 10 N 3.7
Oggi h: 06:20 sereno Sereno 14 11 82 1014 10 O/SO 9.3
Oggi h: 05:50 sereno Sereno 14 11 82 1014 10 SO 9.3
Oggi h: 05:20 sereno Sereno 14 11 82 1014 10 SO 9.3
Oggi h: 04:50 sereno Sereno 14 11 82 1014 10 O/SO 11.1
Oggi h: 04:20 sereno Sereno 14 11 82 1014 10 O/SO 9.3
Oggi h: 03:50 sereno Sereno 14 12 87 1015 10 O/SO 9.3
Oggi h: 03:20 sereno Sereno 15 12 82 1015 10 N 1.8
Oggi h: 02:50 sereno Sereno 15 13 87 1015 10 SO 13
Oggi h: 02:20 sereno Sereno 15 13 87 1016 10 O/SO 9.3
Oggi h: 01:50 sereno Sereno 16 13 82 1016 10 SO 7.4
Oggi h: 01:20 sereno Sereno 16 14 87 1016 10 O 9.3
Oggi h: 00:50 sereno Sereno 17 14 82 1017 10 O 7.4
Oggi h: 00:20 sereno Sereno 17 15 88 1017 10 N 5.5
Ieri h: 23:50 sereno Sereno 19 16 82 1017 10 N 1.8
Ieri h: 23:20 sereno Sereno 20 16 77 1017 10 N 3.7
Ieri h: 22:50 sereno Sereno 20 16 77 1017 10 N 3.7
Ieri h: 22:20 sereno Sereno 20 16 77 1017 10 N 5.5
Ieri h: 21:50 sereno Sereno 20 15 72 1017 10 E/NE 11.1
Ieri h: 21:20 sereno Sereno 20 15 72 1017 10 E 9.3
Ieri h: 20:50 sereno Sereno 20 15 72 1016 10 N 5.5
Ieri h: 20:20 poco_nuvoloso Poco Nuvoloso 21 15 68 1016 10 E 11.1
Ieri h: 19:50 poco_nuvoloso Poco Nuvoloso 22 15 64 1016 10 E/NE 11.1
Ieri h: 19:20 nuvoloso Nuvoloso 22 15 64 1016 10 E 11.1
Ieri h: 18:50 molto_nuvoloso Molto Nuvoloso 22 16 68 1016 10 E 11.1
Ieri h: 18:20 nuvoloso Nuvoloso 22 15 64 1016 10 E 14.8
Ieri h: 17:50 poco_nuvoloso Poco Nuvoloso 23 16 64 1016 10 E 18.5
Ieri h: 17:20 sereno Sereno 23 16 64 1016 10 E 20.3
Ieri h: 16:50 sereno Sereno 24 14 53 1016 10 E/NE 25.9
Ieri h: 16:20 poco_nuvoloso Poco Nuvoloso 25 13 47 1016 10 E 25.9
Ieri h: 15:50 sereno Sereno 25 13 47 1016 10 E/NE 24
Ieri h: 15:20 poco_nuvoloso Poco Nuvoloso 25 13 47 1016 10 E/NE 24
Ieri h: 14:50 sereno Sereno 25 14 50 1017 10 E 22.2